createdAt,value
2023-02-23T00:02:14.436Z,19.40
2023-02-23T00:07:20.390Z,17.60
2023-02-23T00:12:24.357Z,17.17
2023-02-23T00:17:27.097Z,14.73
2023-02-23T00:22:29.871Z,13.43
2023-02-23T00:27:32.740Z,18.25
2023-02-23T00:32:35.626Z,19.13
2023-02-23T00:37:38.356Z,19.55
2023-02-23T00:42:41.261Z,19.13
2023-02-23T00:47:44.998Z,17.45
2023-02-23T00:52:49.286Z,15.20
2023-02-23T00:57:51.894Z,14.27
2023-02-23T01:02:54.612Z,12.80
2023-02-23T01:07:57.282Z,16.02
2023-02-23T01:13:00.036Z,15.27
2023-02-23T01:18:02.897Z,17.45
2023-02-23T01:23:07.793Z,15.18
2023-02-23T01:28:11.709Z,16.98
2023-02-23T01:33:14.423Z,17.50
2023-02-23T01:38:17.098Z,18.77
2023-02-23T01:43:26.356Z,15.55
2023-02-23T01:48:36.917Z,13.52
2023-02-23T01:53:43.660Z,14.50
2023-02-23T01:58:48.168Z,15.45
2023-02-23T02:09:06.984Z,15.68
2023-02-23T02:14:13.569Z,16.13
2023-02-23T02:19:41.824Z,10.77
2023-02-23T02:25:02.814Z,13.50
2023-02-23T02:30:16.140Z,17.02
2023-02-23T02:35:40.242Z,16.23
2023-02-23T02:40:53.675Z,13.43
2023-02-23T02:46:02.701Z,14.77
2023-02-23T02:51:32.180Z,14.45
2023-02-23T02:56:44.746Z,12.27
2023-02-23T03:02:05.817Z,11.90
2023-02-23T03:07:51.082Z,13.85
2023-02-23T03:13:27.588Z,14.05
2023-02-23T03:19:16.214Z,14.23
2023-02-23T03:24:48.933Z,13.23
2023-02-23T03:30:23.486Z,11.07
2023-02-23T03:35:49.042Z,11.40
2023-02-23T03:41:11.140Z,11.18
2023-02-23T03:46:33.847Z,11.73
2023-02-23T03:51:56.948Z,12.90
2023-02-23T03:57:19.091Z,10.80
2023-02-23T04:02:41.374Z,11.93
2023-02-23T04:08:05.024Z,11.98
2023-02-23T04:13:15.303Z,12.33
2023-02-23T04:18:24.153Z,9.85
2023-02-23T04:23:27.965Z,10.65
2023-02-23T04:28:30.699Z,11.05
2023-02-23T04:33:33.467Z,11.30
2023-02-23T04:38:36.277Z,11.18
2023-02-23T04:43:39.057Z,13.30
2023-02-23T04:48:41.738Z,11.73
2023-02-23T04:53:44.517Z,11.63
2023-02-23T04:58:47.204Z,12.30
2023-02-23T05:03:50.547Z,12.35
2023-02-23T05:08:53.245Z,11.05
2023-02-23T05:13:56.568Z,11.60
2023-02-23T05:18:59.559Z,10.68
2023-02-23T05:24:02.629Z,11.25
2023-02-23T05:29:06.945Z,10.98
2023-02-23T05:34:10.633Z,9.90
2023-02-23T05:39:13.479Z,10.23
2023-02-23T05:44:16.464Z,9.98
2023-02-23T05:49:19.378Z,10.15
2023-02-23T05:54:22.583Z,10.02
2023-02-23T05:59:26.186Z,10.20
2023-02-23T06:04:28.791Z,9.73
2023-02-23T06:09:31.498Z,9.77
2023-02-23T06:14:35.211Z,10.13
2023-02-23T06:19:37.958Z,9.73
2023-02-23T06:24:40.692Z,9.95
2023-02-23T06:29:43.633Z,9.43
2023-02-23T06:34:46.534Z,10.07
2023-02-23T06:39:49.836Z,9.77
2023-02-23T06:44:52.537Z,9.85
2023-02-23T06:49:55.281Z,11.05
2023-02-23T06:54:58.014Z,10.13
2023-02-23T07:00:02.657Z,11.10
2023-02-23T07:05:10.456Z,10.45
2023-02-23T07:10:13.320Z,11.25
2023-02-23T07:15:18.167Z,11.05
2023-02-23T07:20:20.858Z,11.25
2023-02-23T07:25:23.898Z,10.57
2023-02-23T07:30:26.891Z,10.68
2023-02-23T07:35:29.599Z,10.95
2023-02-23T07:40:32.616Z,11.13
2023-02-23T07:45:35.668Z,9.80
2023-02-23T07:50:40.760Z,14.88
2023-02-23T07:55:43.690Z,8.02
2023-02-23T08:00:46.388Z,8.27
2023-02-23T08:05:49.073Z,8.88
2023-02-23T08:10:51.855Z,10.07
2023-02-23T08:15:54.728Z,9.98
2023-02-23T08:21:01.998Z,10.75
2023-02-23T08:26:04.859Z,10.90
2023-02-23T08:31:10.563Z,10.35
2023-02-23T08:36:13.582Z,12.13
2023-02-23T08:41:17.245Z,13.52
2023-02-23T08:46:20.960Z,16.58
2023-02-23T08:51:23.920Z,13.88
2023-02-23T08:56:27.359Z,14.75
2023-02-23T09:01:30.123Z,13.35
2023-02-23T09:06:36.145Z,14.55
2023-02-23T09:11:38.836Z,14.07
2023-02-23T09:16:41.569Z,15.45
2023-02-23T09:21:44.866Z,13.98
2023-02-23T09:26:47.865Z,15.45
2023-02-23T09:31:53.408Z,16.87
2023-02-23T09:36:56.115Z,15.50
2023-02-23T09:42:16.816Z,16.40
2023-02-23T09:47:24.182Z,17.65
2023-02-23T09:52:30.884Z,16.17
2023-02-23T09:57:53.791Z,13.75
2023-02-23T10:03:14.686Z,15.32
2023-02-23T10:08:23.138Z,14.32
2023-02-23T10:13:49.068Z,13.80
2023-02-23T10:19:00.961Z,14.48
2023-02-23T10:24:09.855Z,13.95
2023-02-23T10:29:29.893Z,14.05
2023-02-23T10:34:32.712Z,13.27
2023-02-23T10:39:35.694Z,16.02
2023-02-23T10:44:38.388Z,14.65
2023-02-23T10:49:50.312Z,15.75
2023-02-23T10:54:53.506Z,15.98
2023-02-23T11:00:04.379Z,18.77
2023-02-23T11:05:08.461Z,19.70
2023-02-23T11:10:28.351Z,17.85
2023-02-23T11:15:49.898Z,19.70
2023-02-23T11:20:53.804Z,23.60
2023-02-23T11:26:02.361Z,25.35
2023-02-23T11:31:14.887Z,23.63
2023-02-23T11:36:28.362Z,23.92
2023-02-23T11:41:33.204Z,33.92
2023-02-23T11:46:39.521Z,28.27
2023-02-23T11:51:49.669Z,28.65
2023-02-23T11:56:54.446Z,32.60
2023-02-23T12:02:23.298Z,30.00
2023-02-23T12:07:43.488Z,37.33
2023-02-23T12:13:24.697Z,40.63
2023-02-23T12:18:55.299Z,29.65
2023-02-23T12:24:16.425Z,33.60
2023-02-23T12:29:42.952Z,32.67
2023-02-23T12:35:02.613Z,38.28
2023-02-23T12:40:23.591Z,36.78
2023-02-23T12:45:37.428Z,36.72
2023-02-23T12:50:51.812Z,37.03
2023-02-23T12:56:12.359Z,37.53
2023-02-23T13:01:24.946Z,35.15
2023-02-23T13:06:39.496Z,35.55
2023-02-23T13:12:00.222Z,38.60
2023-02-23T13:17:14.891Z,38.65
2023-02-23T13:22:48.594Z,35.90
2023-02-23T13:27:58.434Z,36.83
2023-02-23T13:33:17.948Z,38.53
2023-02-23T13:38:26.680Z,38.65
2023-02-23T13:43:35.943Z,38.40
2023-02-23T13:48:56.235Z,35.75
2023-02-23T13:54:04.574Z,33.15
2023-02-23T13:59:10.111Z,35.58
2023-02-23T14:04:16.751Z,31.60
2023-02-23T14:09:24.150Z,28.27
2023-02-23T14:14:33.414Z,34.08
2023-02-23T14:19:38.393Z,34.60
2023-02-23T14:24:44.213Z,31.40
2023-02-23T14:35:48.087Z,35.42
2023-02-23T14:40:52.265Z,31.13
2023-02-23T14:45:55.686Z,29.92
2023-02-23T14:51:37.403Z,28.30
2023-02-23T14:56:47.463Z,28.55
2023-02-23T15:01:52.002Z,27.55
2023-02-23T15:06:59.466Z,28.45
2023-02-23T15:12:11.998Z,28.52
2023-02-23T15:17:17.441Z,28.75
2023-02-23T15:22:29.208Z,27.15
2023-02-23T15:27:43.177Z,26.77
2023-02-23T15:32:46.426Z,24.80
2023-02-23T15:37:56.577Z,22.77
2023-02-23T15:43:10.024Z,21.08
2023-02-23T15:48:21.251Z,20.85
2023-02-23T15:53:26.797Z,21.55
2023-02-23T15:58:32.359Z,17.73
2023-02-23T16:03:37.884Z,18.08
2023-02-23T16:08:56.634Z,16.60
2023-02-23T16:13:59.401Z,19.42
2023-02-23T16:19:02.281Z,16.02
2023-02-23T16:24:17.606Z,16.70
2023-02-23T16:29:44.829Z,15.57
2023-02-23T16:34:58.280Z,14.65
2023-02-23T16:40:01.816Z,14.68
2023-02-23T16:45:06.150Z,15.38
2023-02-23T16:50:29.812Z,11.50
2023-02-23T16:55:41.892Z,14.80
2023-02-23T17:00:51.437Z,12.48
2023-02-23T17:05:54.664Z,11.82
2023-02-23T17:10:57.807Z,11.93
2023-02-23T17:16:03.857Z,12.35
2023-02-23T17:21:10.114Z,13.20
2023-02-23T17:26:13.117Z,14.57
2023-02-23T17:31:17.026Z,13.45
2023-02-23T17:36:20.012Z,16.55
2023-02-23T17:41:23.136Z,16.17
2023-02-23T17:46:26.352Z,16.52
2023-02-23T17:51:29.121Z,17.88
2023-02-23T17:56:32.094Z,16.40
2023-02-23T18:01:35.107Z,17.02
2023-02-23T18:06:38.023Z,15.63
2023-02-23T18:11:40.782Z,17.45
2023-02-23T18:16:43.697Z,18.90
2023-02-23T18:21:46.624Z,16.23
2023-02-23T18:26:49.406Z,17.13
2023-02-23T18:31:52.803Z,15.13
2023-02-23T18:37:02.719Z,14.63
2023-02-23T18:42:05.845Z,15.32
2023-02-23T18:47:08.761Z,15.63
2023-02-23T18:52:11.497Z,15.60
2023-02-23T18:57:14.216Z,15.35
2023-02-23T19:02:19.169Z,15.98
2023-02-23T19:07:22.092Z,14.98
2023-02-23T19:12:24.865Z,13.90
2023-02-23T19:17:28.943Z,14.18
2023-02-23T19:22:34.508Z,14.97
2023-02-23T19:27:37.522Z,14.45
2023-02-23T19:32:40.529Z,15.88
2023-02-23T19:37:52.352Z,11.90
2023-02-23T19:42:55.199Z,14.23
2023-02-23T19:47:57.943Z,17.92
2023-02-23T19:53:00.685Z,15.80
2023-02-23T19:58:03.451Z,15.20
2023-02-23T20:03:07.293Z,13.60
2023-02-23T20:08:10.381Z,14.80
2023-02-23T20:13:13.091Z,13.27
2023-02-23T20:18:15.854Z,13.13
2023-02-23T20:23:18.875Z,13.20
2023-02-23T20:28:21.766Z,11.80
2023-02-23T20:33:24.587Z,12.38
2023-02-23T20:38:27.385Z,12.05
2023-02-23T20:43:31.206Z,11.93
2023-02-23T20:48:35.209Z,11.27
2023-02-23T20:53:37.879Z,11.13
2023-02-23T20:58:40.634Z,13.55
2023-02-23T21:03:43.597Z,12.77
2023-02-23T21:08:49.216Z,12.25
2023-02-23T21:13:52.684Z,12.32
2023-02-23T21:19:04.423Z,13.88
2023-02-23T21:24:08.027Z,15.23
2023-02-23T21:29:15.238Z,19.13
2023-02-23T21:34:20.634Z,16.15
2023-02-23T21:39:26.841Z,15.00
2023-02-23T21:44:29.642Z,16.70
2023-02-23T21:49:32.376Z,13.75
2023-02-23T21:54:37.328Z,12.95
2023-02-23T21:59:39.988Z,15.82
2023-02-23T22:04:42.653Z,14.65
2023-02-23T22:09:45.392Z,15.18
2023-02-23T22:14:48.546Z,14.20
2023-02-23T22:19:54.181Z,13.98
2023-02-23T22:24:56.950Z,12.73
2023-02-23T22:30:01.759Z,13.30
2023-02-23T22:35:07.540Z,11.40
2023-02-23T22:40:17.189Z,13.10
2023-02-23T22:45:20.685Z,13.32
2023-02-23T22:50:23.372Z,12.75
2023-02-23T22:55:29.677Z,11.77
2023-02-23T23:00:32.913Z,12.77
2023-02-23T23:05:35.947Z,12.25
2023-02-23T23:10:38.651Z,12.02
2023-02-23T23:15:43.042Z,11.50
2023-02-23T23:20:45.700Z,10.93
2023-02-23T23:25:49.245Z,10.00
2023-02-23T23:30:52.575Z,9.73
2023-02-23T23:35:55.385Z,10.73
2023-02-23T23:41:10.314Z,10.55
2023-02-23T23:46:24.907Z,8.35
2023-02-23T23:51:30.887Z,9.52
2023-02-23T23:56:36.104Z,8.93
